createdAt,value
2023-08-29T00:04:58.051Z,11
2023-08-29T00:09:57.949Z,11.06
2023-08-29T00:14:57.978Z,11.12
2023-08-29T00:19:57.946Z,11.18
2023-08-29T00:24:57.997Z,11.12
2023-08-29T00:29:57.943Z,11.12
2023-08-29T00:34:57.944Z,11.18
2023-08-29T00:39:57.927Z,11.12
2023-08-29T00:44:57.888Z,11.12
2023-08-29T00:49:57.903Z,11.06
2023-08-29T00:54:57.898Z,11.18
2023-08-29T00:59:57.904Z,11.06
2023-08-29T01:04:57.908Z,11.12
2023-08-29T01:09:57.887Z,11
2023-08-29T01:14:57.884Z,11
2023-08-29T01:19:57.898Z,11.06
2023-08-29T01:24:57.878Z,11.06
2023-08-29T01:29:57.880Z,11.06
2023-08-29T01:34:57.849Z,11.06
2023-08-29T01:39:57.864Z,11
2023-08-29T01:44:57.882Z,10.93
2023-08-29T01:49:57.841Z,11.12
2023-08-29T01:54:57.842Z,10.93
2023-08-29T01:59:57.854Z,10.93
2023-08-29T02:04:57.830Z,11.06
2023-08-29T02:09:57.852Z,10.93
2023-08-29T02:14:57.827Z,10.93
2023-08-29T02:44:57.766Z,10.37
2023-08-29T02:49:57.779Z,10.37
2023-08-29T03:04:57.766Z,10.12
2023-08-29T03:19:57.742Z,10.06
2023-08-29T03:29:57.710Z,10.12
2023-08-29T03:44:57.705Z,10
2023-08-29T03:49:57.702Z,10.06
2023-08-29T03:54:57.688Z,10
2023-08-29T04:04:57.905Z,9.93
2023-08-29T04:09:57.689Z,10
2023-08-29T04:39:57.644Z,9.93
2023-08-29T04:44:57.639Z,10.06
2023-08-29T04:49:57.659Z,9.93
2023-08-29T04:54:57.684Z,10
2023-08-29T04:59:57.641Z,10
2023-08-29T05:04:57.644Z,10
2023-08-29T05:09:57.648Z,10.12
2023-08-29T05:14:57.630Z,10.12
2023-08-29T05:19:57.640Z,10.25
2023-08-29T05:24:57.616Z,10.18
2023-08-29T05:29:57.613Z,10.12
2023-08-29T05:34:57.618Z,10.31
2023-08-29T05:39:57.587Z,10.37
2023-08-29T05:44:57.598Z,10.37
2023-08-29T05:49:57.598Z,10.43
2023-08-29T05:54:57.581Z,10.31
2023-08-29T05:59:57.562Z,10.43
2023-08-29T06:04:57.605Z,10.68
2023-08-29T06:09:57.574Z,10.56
2023-08-29T06:14:57.562Z,10.68
2023-08-29T06:19:57.556Z,10.62
2023-08-29T06:24:57.563Z,10.75
2023-08-29T06:29:57.556Z,10.68
2023-08-29T06:34:57.524Z,10.62
2023-08-29T06:39:57.563Z,10.62
2023-08-29T06:44:57.548Z,10.62
2023-08-29T06:49:57.506Z,10.75
2023-08-29T06:54:57.532Z,10.68
2023-08-29T06:59:57.521Z,10.75
2023-08-29T07:04:57.537Z,10.81
2023-08-29T07:09:57.483Z,10.81
2023-08-29T07:14:57.498Z,10.75
2023-08-29T07:19:57.501Z,10.75
2023-08-29T07:24:57.500Z,11
2023-08-29T07:29:57.482Z,11.31
2023-08-29T07:34:57.477Z,11.43
2023-08-29T07:39:57.473Z,11.18
2023-08-29T07:44:57.461Z,11.37
2023-08-29T07:49:57.454Z,11.31
2023-08-29T07:54:57.472Z,11.68
2023-08-29T07:59:57.450Z,11.81
2023-08-29T08:04:57.482Z,11.68
2023-08-29T08:09:57.440Z,11.56
2023-08-29T08:14:57.433Z,11.68
2023-08-29T08:19:57.439Z,11.68
2023-08-29T08:24:57.442Z,12
2023-08-29T08:29:57.413Z,12.31
2023-08-29T08:34:57.421Z,12.25
2023-08-29T08:39:57.406Z,12.62
2023-08-29T08:44:57.396Z,12.56
2023-08-29T08:49:57.388Z,12.37
2023-08-29T08:54:57.367Z,12.31
2023-08-29T08:59:57.369Z,12.25
2023-08-29T09:04:57.522Z,12
2023-08-29T09:09:57.359Z,12.43
2023-08-29T09:14:57.370Z,12.43
2023-08-29T09:19:57.358Z,12.37
2023-08-29T09:24:57.359Z,12.12
2023-08-29T09:29:57.350Z,12.68
2023-08-29T09:39:57.343Z,14.12
2023-08-29T09:44:57.423Z,13.37
2023-08-29T09:49:57.317Z,13.68
2023-08-29T09:54:57.313Z,14.68
2023-08-29T09:59:57.294Z,14.87
2023-08-29T10:04:57.283Z,15.06
2023-08-29T10:09:57.282Z,15.06
2023-08-29T10:14:57.310Z,14.25
2023-08-29T10:19:57.282Z,13.75
2023-08-29T10:24:57.319Z,14.43
2023-08-29T10:29:57.281Z,13.93
2023-08-29T10:34:57.256Z,13.31
2023-08-29T10:39:57.276Z,13.06
2023-08-29T10:44:57.252Z,13.68
2023-08-29T10:49:57.271Z,13.68
2023-08-29T10:54:57.238Z,13.81
2023-08-29T10:59:57.231Z,14.62
2023-08-29T11:04:57.310Z,14.81
2023-08-29T11:09:57.227Z,15.81
2023-08-29T11:14:57.287Z,15.31
2023-08-29T11:19:57.226Z,14.56
2023-08-29T11:30:11.641Z,15.43
2023-08-29T11:59:57.152Z,14.06
2023-08-29T12:09:57.132Z,14.81
2023-08-29T12:29:57.102Z,14.81
2023-08-29T12:54:57.074Z,13.43
2023-08-29T13:44:57.020Z,14.25
2023-08-29T13:59:56.976Z,13.87
2023-08-29T14:09:56.994Z,13.93
2023-08-29T14:14:56.989Z,13.68
2023-08-29T14:19:56.980Z,13.5
2023-08-29T14:24:57.007Z,13.5
2023-08-29T14:29:56.992Z,13.81
2023-08-29T14:34:56.985Z,13.06
2023-08-29T14:39:56.950Z,13.12
2023-08-29T14:44:56.943Z,13.68
2023-08-29T14:49:56.994Z,14
2023-08-29T14:54:56.943Z,14
2023-08-29T14:59:56.942Z,14.31
2023-08-29T15:04:56.921Z,14
2023-08-29T15:09:56.894Z,13.93
2023-08-29T15:14:56.912Z,13.75
2023-08-29T15:19:56.892Z,13.68
2023-08-29T15:24:56.889Z,13.62
2023-08-29T15:29:56.915Z,13.56
2023-08-29T15:34:56.903Z,13.31
2023-08-29T15:39:56.875Z,13.31
2023-08-29T15:44:56.862Z,13.25
2023-08-29T15:49:56.882Z,13.06
2023-08-29T15:54:56.866Z,13.37
2023-08-29T15:59:56.871Z,13.31
2023-08-29T16:04:56.861Z,13.25
2023-08-29T16:09:56.844Z,13.12
2023-08-29T16:14:56.856Z,13.25
2023-08-29T16:19:56.849Z,13.12
2023-08-29T16:24:56.819Z,13
2023-08-29T16:29:56.833Z,13
2023-08-29T16:34:56.821Z,12.87
2023-08-29T16:39:56.851Z,12.68
2023-08-29T16:44:56.793Z,12.68
2023-08-29T16:49:56.809Z,12.62
2023-08-29T16:59:56.783Z,12.43
2023-08-29T17:09:56.775Z,12.25
2023-08-29T17:19:56.750Z,12
2023-08-29T17:29:56.743Z,12.06
2023-08-29T17:44:56.795Z,12
2023-08-29T18:14:56.704Z,12.43
2023-08-29T18:19:56.703Z,12.43
2023-08-29T18:24:56.671Z,12.25
2023-08-29T18:29:56.705Z,12.31
2023-08-29T18:44:56.644Z,12.06
2023-08-29T19:04:56.653Z,12.06
2023-08-29T19:14:56.626Z,11.87
2023-08-29T19:19:56.641Z,11.87
2023-08-29T19:29:56.614Z,11.75
2023-08-29T19:54:56.592Z,11.87
2023-08-29T19:59:56.587Z,11.81
2023-08-29T20:04:56.594Z,11.87
2023-08-29T20:09:56.566Z,11.93
2023-08-29T20:14:56.561Z,11.93
2023-08-29T20:19:56.573Z,11.93
2023-08-29T20:24:56.579Z,11.93
2023-08-29T20:29:56.555Z,11.93
2023-08-29T20:34:56.546Z,11.93
2023-08-29T20:39:56.588Z,11.93
2023-08-29T20:44:56.560Z,11.93
2023-08-29T20:49:56.544Z,12
2023-08-29T20:54:56.523Z,12
2023-08-29T20:59:56.538Z,12.06
2023-08-29T21:04:56.532Z,12.06
2023-08-29T21:09:56.535Z,12
2023-08-29T21:14:56.550Z,11.93
2023-08-29T21:19:56.512Z,11.93
2023-08-29T21:24:56.501Z,11.87
2023-08-29T21:29:56.535Z,11.87
2023-08-29T21:34:56.485Z,11.81
2023-08-29T21:39:56.476Z,11.81
2023-08-29T21:49:56.461Z,11.81
2023-08-29T21:54:56.483Z,11.87
2023-08-29T21:59:56.468Z,11.87
2023-08-29T22:04:56.469Z,11.87
2023-08-29T22:09:56.462Z,11.87
2023-08-29T22:14:56.470Z,11.87
2023-08-29T22:19:56.435Z,11.93
2023-08-29T22:24:56.446Z,11.93
2023-08-29T22:29:56.409Z,11.81
2023-08-29T22:34:56.426Z,11.93
2023-08-29T22:39:56.420Z,12
2023-08-29T22:44:56.452Z,11.93
2023-08-29T22:49:56.405Z,11.93
2023-08-29T22:54:56.401Z,11.93
2023-08-29T22:59:56.384Z,11.87
2023-08-29T23:04:56.405Z,12
2023-08-29T23:09:56.405Z,11.93
2023-08-29T23:14:56.385Z,11.87
2023-08-29T23:19:56.391Z,11.87
2023-08-29T23:24:56.382Z,12
2023-08-29T23:29:56.390Z,12.06
2023-08-29T23:34:56.338Z,12.06
2023-08-29T23:39:56.393Z,12
2023-08-29T23:44:56.419Z,12.18
2023-08-29T23:49:56.339Z,12.12
2023-08-29T23:54:56.346Z,12.06
2023-08-29T23:59:56.359Z,12.06
